sensor_id;sensor_type;location;lat;lon;timestamp;P1;durP1;ratioP1;P2;durP2;ratioP2
21569;SDS011;57598;50.888;4.746;2023-07-13T00:01:51;36.13;;;34.03;;
21569;SDS011;57598;50.888;4.746;2023-07-13T00:04:19;36.78;;;34.58;;
21569;SDS011;57598;50.888;4.746;2023-07-13T00:06:48;36.40;;;34.30;;
21569;SDS011;57598;50.888;4.746;2023-07-13T00:09:17;37.45;;;35.25;;
21569;SDS011;57598;50.888;4.746;2023-07-13T00:11:45;38.05;;;35.65;;
21569;SDS011;57598;50.888;4.746;2023-07-13T00:14:13;38.40;;;36.10;;
21569;SDS011;57598;50.888;4.746;2023-07-13T00:16:40;39.22;;;36.83;;
21569;SDS011;57598;50.888;4.746;2023-07-13T00:19:09;39.90;;;37.10;;
21569;SDS011;57598;50.888;4.746;2023-07-13T00:21:36;39.15;;;36.75;;
21569;SDS011;57598;50.888;4.746;2023-07-13T00:24:04;39.72;;;37.22;;
21569;SDS011;57598;50.888;4.746;2023-07-13T00:26:33;39.33;;;36.83;;
21569;SDS011;57598;50.888;4.746;2023-07-13T00:29:00;39.75;;;37.25;;
21569;SDS011;57598;50.888;4.746;2023-07-13T00:31:27;41.63;;;38.60;;
21569;SDS011;57598;50.888;4.746;2023-07-13T00:33:55;40.30;;;37.75;;
21569;SDS011;57598;50.888;4.746;2023-07-13T00:36:22;43.03;;;40.17;;
21569;SDS011;57598;50.888;4.746;2023-07-13T00:38:49;42.22;;;39.42;;
21569;SDS011;57598;50.888;4.746;2023-07-13T00:41:17;40.63;;;38.03;;
21569;SDS011;57598;50.888;4.746;2023-07-13T00:43:45;41.58;;;38.88;;
21569;SDS011;57598;50.888;4.746;2023-07-13T00:48:48;40.97;;;38.28;;
21569;SDS011;57598;50.888;4.746;2023-07-13T00:51:17;41.60;;;38.90;;
21569;SDS011;57598;50.888;4.746;2023-07-13T00:53:46;42.72;;;39.83;;
21569;SDS011;57598;50.888;4.746;2023-07-13T00:56:13;42.08;;;39.28;;
21569;SDS011;57598;50.888;4.746;2023-07-13T00:58:40;42.05;;;39.25;;
21569;SDS011;57598;50.888;4.746;2023-07-13T01:01:09;42.38;;;39.50;;
21569;SDS011;57598;50.888;4.746;2023-07-13T01:03:38;43.20;;;40.25;;
21569;SDS011;57598;50.888;4.746;2023-07-13T01:06:06;44.78;;;40.15;;
21569;SDS011;57598;50.888;4.746;2023-07-13T01:08:34;41.30;;;38.50;;
21569;SDS011;57598;50.888;4.746;2023-07-13T01:11:01;42.10;;;39.20;;
21569;SDS011;57598;50.888;4.746;2023-07-13T01:13:29;42.70;;;39.80;;
21569;SDS011;57598;50.888;4.746;2023-07-13T01:15:56;43.35;;;40.45;;
21569;SDS011;57598;50.888;4.746;2023-07-13T01:18:27;42.47;;;39.58;;
21569;SDS011;57598;50.888;4.746;2023-07-13T01:20:56;42.40;;;39.50;;
21569;SDS011;57598;50.888;4.746;2023-07-13T01:23:24;43.00;;;40.00;;
21569;SDS011;57598;50.888;4.746;2023-07-13T01:25:51;42.83;;;39.92;;
21569;SDS011;57598;50.888;4.746;2023-07-13T01:28:20;43.22;;;40.22;;
21569;SDS011;57598;50.888;4.746;2023-07-13T01:30:48;42.88;;;39.88;;
21569;SDS011;57598;50.888;4.746;2023-07-13T01:33:16;44.35;;;41.25;;
21569;SDS011;57598;50.888;4.746;2023-07-13T01:35:44;43.60;;;40.50;;
21569;SDS011;57598;50.888;4.746;2023-07-13T01:38:13;43.13;;;40.13;;
21569;SDS011;57598;50.888;4.746;2023-07-13T01:40:41;43.53;;;40.53;;
21569;SDS011;57598;50.888;4.746;2023-07-13T01:43:08;43.83;;;40.72;;
21569;SDS011;57598;50.888;4.746;2023-07-13T01:45:36;44.03;;;40.92;;
21569;SDS011;57598;50.888;4.746;2023-07-13T01:48:03;44.28;;;41.15;;
21569;SDS011;57598;50.888;4.746;2023-07-13T01:50:31;44.08;;;40.92;;
21569;SDS011;57598;50.888;4.746;2023-07-13T01:52:59;45.38;;;42.08;;
21569;SDS011;57598;50.888;4.746;2023-07-13T01:55:28;45.22;;;42.00;;
21569;SDS011;57598;50.888;4.746;2023-07-13T01:57:55;45.08;;;41.88;;
21569;SDS011;57598;50.888;4.746;2023-07-13T02:00:23;44.55;;;41.35;;
21569;SDS011;57598;50.888;4.746;2023-07-13T02:02:50;45.38;;;42.08;;
21569;SDS011;57598;50.888;4.746;2023-07-13T02:05:18;46.47;;;43.08;;
21569;SDS011;57598;50.888;4.746;2023-07-13T02:07:46;45.78;;;42.45;;
21569;SDS011;57598;50.888;4.746;2023-07-13T02:10:14;45.47;;;42.17;;
21569;SDS011;57598;50.888;4.746;2023-07-13T02:12:43;45.28;;;41.97;;
21569;SDS011;57598;50.888;4.746;2023-07-13T02:15:11;45.47;;;42.17;;
21569;SDS011;57598;50.888;4.746;2023-07-13T02:17:38;46.65;;;43.25;;
21569;SDS011;57598;50.888;4.746;2023-07-13T02:20:06;46.40;;;42.90;;
21569;SDS011;57598;50.888;4.746;2023-07-13T02:22:34;46.72;;;43.30;;
21569;SDS011;57598;50.888;4.746;2023-07-13T02:25:01;46.80;;;43.40;;
21569;SDS011;57598;50.888;4.746;2023-07-13T02:27:29;46.35;;;42.95;;
21569;SDS011;57598;50.888;4.746;2023-07-13T02:29:57;46.15;;;42.75;;
21569;SDS011;57598;50.888;4.746;2023-07-13T02:32:24;45.75;;;42.45;;
21569;SDS011;57598;50.888;4.746;2023-07-13T02:34:52;46.05;;;42.75;;
21569;SDS011;57598;50.888;4.746;2023-07-13T02:37:19;45.30;;;42.00;;
21569;SDS011;57598;50.888;4.746;2023-07-13T02:39:46;47.28;;;43.70;;
21569;SDS011;57598;50.888;4.746;2023-07-13T02:42:14;46.38;;;42.97;;
21569;SDS011;57598;50.888;4.746;2023-07-13T02:44:41;47.65;;;44.15;;
21569;SDS011;57598;50.888;4.746;2023-07-13T02:47:10;47.30;;;43.90;;
21569;SDS011;57598;50.888;4.746;2023-07-13T02:49:38;47.47;;;43.97;;
21569;SDS011;57598;50.888;4.746;2023-07-13T02:52:05;47.08;;;43.58;;
21569;SDS011;57598;50.888;4.746;2023-07-13T02:54:33;47.03;;;43.53;;
21569;SDS011;57598;50.888;4.746;2023-07-13T02:57:00;48.08;;;44.53;;
21569;SDS011;57598;50.888;4.746;2023-07-13T02:59:27;48.05;;;44.55;;
21569;SDS011;57598;50.888;4.746;2023-07-13T03:01:55;46.72;;;43.22;;
21569;SDS011;57598;50.888;4.746;2023-07-13T03:04:23;46.88;;;43.38;;
21569;SDS011;57598;50.888;4.746;2023-07-13T03:06:50;45.85;;;42.38;;
21569;SDS011;57598;50.888;4.746;2023-07-13T03:09:18;46.05;;;42.55;;
21569;SDS011;57598;50.888;4.746;2023-07-13T03:11:45;46.03;;;42.63;;
21569;SDS011;57598;50.888;4.746;2023-07-13T03:14:12;46.85;;;43.35;;
21569;SDS011;57598;50.888;4.746;2023-07-13T03:16:39;46.53;;;43.03;;
21569;SDS011;57598;50.888;4.746;2023-07-13T03:19:07;46.97;;;43.47;;
21569;SDS011;57598;50.888;4.746;2023-07-13T03:21:35;47.30;;;43.80;;
21569;SDS011;57598;50.888;4.746;2023-07-13T03:24:03;47.70;;;44.10;;
21569;SDS011;57598;50.888;4.746;2023-07-13T03:26:30;46.80;;;43.30;;
21569;SDS011;57598;50.888;4.746;2023-07-13T03:28:58;46.33;;;42.83;;
21569;SDS011;57598;50.888;4.746;2023-07-13T03:31:26;47.90;;;44.30;;
21569;SDS011;57598;50.888;4.746;2023-07-13T03:33:54;46.53;;;42.83;;
21569;SDS011;57598;50.888;4.746;2023-07-13T03:36:22;48.05;;;44.45;;
21569;SDS011;57598;50.888;4.746;2023-07-13T03:38:52;50.38;;;46.22;;
21569;SDS011;57598;50.888;4.746;2023-07-13T03:41:19;46.30;;;42.90;;
21569;SDS011;57598;50.888;4.746;2023-07-13T03:43:47;46.03;;;42.63;;
21569;SDS011;57598;50.888;4.746;2023-07-13T03:46:15;47.80;;;44.20;;
21569;SDS011;57598;50.888;4.746;2023-07-13T03:48:43;48.72;;;45.13;;
21569;SDS011;57598;50.888;4.746;2023-07-13T03:51:11;45.13;;;41.72;;
21569;SDS011;57598;50.888;4.746;2023-07-13T03:53:40;47.13;;;43.63;;
21569;SDS011;57598;50.888;4.746;2023-07-13T03:56:09;46.00;;;42.60;;
21569;SDS011;57598;50.888;4.746;2023-07-13T03:58:36;46.47;;;43.05;;
21569;SDS011;57598;50.888;4.746;2023-07-13T04:01:04;45.25;;;41.95;;
21569;SDS011;57598;50.888;4.746;2023-07-13T04:03:32;46.30;;;42.90;;
21569;SDS011;57598;50.888;4.746;2023-07-13T04:06:00;46.72;;;43.38;;
21569;SDS011;57598;50.888;4.746;2023-07-13T04:08:28;46.17;;;42.78;;
21569;SDS011;57598;50.888;4.746;2023-07-13T04:10:56;44.60;;;41.40;;
21569;SDS011;57598;50.888;4.746;2023-07-13T04:13:25;43.20;;;40.10;;
21569;SDS011;57598;50.888;4.746;2023-07-13T04:15:52;45.55;;;42.30;;
21569;SDS011;57598;50.888;4.746;2023-07-13T04:18:20;47.78;;;44.20;;
21569;SDS011;57598;50.888;4.746;2023-07-13T04:20:47;44.78;;;41.60;;
21569;SDS011;57598;50.888;4.746;2023-07-13T04:23:15;47.00;;;42.80;;
21569;SDS011;57598;50.888;4.746;2023-07-13T04:25:43;45.42;;;42.22;;
21569;SDS011;57598;50.888;4.746;2023-07-13T04:28:10;43.80;;;40.70;;
21569;SDS011;57598;50.888;4.746;2023-07-13T04:30:39;45.25;;;42.05;;
21569;SDS011;57598;50.888;4.746;2023-07-13T04:33:06;45.40;;;42.30;;
21569;SDS011;57598;50.888;4.746;2023-07-13T04:35:34;46.25;;;43.15;;
21569;SDS011;57598;50.888;4.746;2023-07-13T04:38:02;44.40;;;41.10;;
21569;SDS011;57598;50.888;4.746;2023-07-13T04:40:29;45.47;;;42.38;;
21569;SDS011;57598;50.888;4.746;2023-07-13T04:42:57;42.67;;;39.72;;
21569;SDS011;57598;50.888;4.746;2023-07-13T04:45:24;46.63;;;42.95;;
21569;SDS011;57598;50.888;4.746;2023-07-13T04:47:53;44.78;;;41.35;;
21569;SDS011;57598;50.888;4.746;2023-07-13T04:50:20;45.38;;;42.00;;
21569;SDS011;57598;50.888;4.746;2023-07-13T04:52:48;44.60;;;41.50;;
21569;SDS011;57598;50.888;4.746;2023-07-13T04:55:15;43.92;;;40.83;;
21569;SDS011;57598;50.888;4.746;2023-07-13T04:57:43;44.92;;;41.67;;
21569;SDS011;57598;50.888;4.746;2023-07-13T05:00:10;45.60;;;42.28;;
21569;SDS011;57598;50.888;4.746;2023-07-13T05:02:38;47.05;;;43.67;;
21569;SDS011;57598;50.888;4.746;2023-07-13T05:05:07;45.75;;;42.65;;
21569;SDS011;57598;50.888;4.746;2023-07-13T05:07:34;45.70;;;42.60;;
21569;SDS011;57598;50.888;4.746;2023-07-13T05:10:02;45.10;;;42.10;;
21569;SDS011;57598;50.888;4.746;2023-07-13T05:12:29;44.80;;;41.90;;
21569;SDS011;57598;50.888;4.746;2023-07-13T05:14:57;44.42;;;41.47;;
21569;SDS011;57598;50.888;4.746;2023-07-13T05:17:24;44.50;;;41.50;;
21569;SDS011;57598;50.888;4.746;2023-07-13T05:19:51;43.47;;;40.58;;
21569;SDS011;57598;50.888;4.746;2023-07-13T05:22:20;45.25;;;42.25;;
21569;SDS011;57598;50.888;4.746;2023-07-13T05:24:47;44.05;;;41.08;;
21569;SDS011;57598;50.888;4.746;2023-07-13T05:27:14;45.47;;;42.47;;
21569;SDS011;57598;50.888;4.746;2023-07-13T05:29:42;45.40;;;42.05;;
21569;SDS011;57598;50.888;4.746;2023-07-13T05:32:09;45.38;;;42.28;;
21569;SDS011;57598;50.888;4.746;2023-07-13T05:34:36;47.22;;;43.63;;
21569;SDS011;57598;50.888;4.746;2023-07-13T05:37:04;44.03;;;41.13;;
21569;SDS011;57598;50.888;4.746;2023-07-13T05:39:33;44.90;;;41.85;;
21569;SDS011;57598;50.888;4.746;2023-07-13T05:42:00;45.97;;;42.97;;
21569;SDS011;57598;50.888;4.746;2023-07-13T05:44:27;45.38;;;42.45;;
21569;SDS011;57598;50.888;4.746;2023-07-13T05:46:54;44.75;;;41.85;;
21569;SDS011;57598;50.888;4.746;2023-07-13T05:49:22;42.90;;;40.20;;
21569;SDS011;57598;50.888;4.746;2023-07-13T05:51:49;43.25;;;40.55;;
21569;SDS011;57598;50.888;4.746;2023-07-13T05:54:16;43.08;;;40.35;;
21569;SDS011;57598;50.888;4.746;2023-07-13T05:56:45;45.50;;;42.20;;
21569;SDS011;57598;50.888;4.746;2023-07-13T05:59:12;43.25;;;40.40;;
21569;SDS011;57598;50.888;4.746;2023-07-13T06:01:40;42.58;;;39.88;;
21569;SDS011;57598;50.888;4.746;2023-07-13T06:04:08;44.53;;;41.60;;
21569;SDS011;57598;50.888;4.746;2023-07-13T06:06:35;43.92;;;40.85;;
21569;SDS011;57598;50.888;4.746;2023-07-13T06:09:02;42.08;;;39.47;;
21569;SDS011;57598;50.888;4.746;2023-07-13T06:11:30;41.33;;;38.72;;
21569;SDS011;57598;50.888;4.746;2023-07-13T06:13:58;42.35;;;39.67;;
21569;SDS011;57598;50.888;4.746;2023-07-13T06:16:25;43.50;;;40.45;;
21569;SDS011;57598;50.888;4.746;2023-07-13T06:18:53;45.03;;;42.03;;
21569;SDS011;57598;50.888;4.746;2023-07-13T06:21:21;43.53;;;40.72;;
21569;SDS011;57598;50.888;4.746;2023-07-13T06:23:49;42.63;;;39.83;;
21569;SDS011;57598;50.888;4.746;2023-07-13T06:26:16;42.03;;;39.42;;
21569;SDS011;57598;50.888;4.746;2023-07-13T06:28:44;43.33;;;40.25;;
21569;SDS011;57598;50.888;4.746;2023-07-13T06:31:13;42.17;;;39.47;;
21569;SDS011;57598;50.888;4.746;2023-07-13T06:33:41;41.45;;;38.95;;
21569;SDS011;57598;50.888;4.746;2023-07-13T06:36:09;41.88;;;39.30;;
21569;SDS011;57598;50.888;4.746;2023-07-13T06:38:36;42.10;;;39.40;;
21569;SDS011;57598;50.888;4.746;2023-07-13T06:41:04;41.50;;;38.70;;
21569;SDS011;57598;50.888;4.746;2023-07-13T06:43:32;42.42;;;39.72;;
21569;SDS011;57598;50.888;4.746;2023-07-13T06:45:59;41.83;;;38.80;;
21569;SDS011;57598;50.888;4.746;2023-07-13T06:48:27;40.63;;;38.13;;
21569;SDS011;57598;50.888;4.746;2023-07-13T06:50:55;41.53;;;39.03;;
21569;SDS011;57598;50.888;4.746;2023-07-13T06:53:22;43.00;;;40.40;;
21569;SDS011;57598;50.888;4.746;2023-07-13T06:55:50;41.30;;;38.80;;
21569;SDS011;57598;50.888;4.746;2023-07-13T06:58:18;42.70;;;39.88;;
21569;SDS011;57598;50.888;4.746;2023-07-13T07:00:45;42.40;;;39.80;;
21569;SDS011;57598;50.888;4.746;2023-07-13T07:03:13;42.42;;;39.83;;
21569;SDS011;57598;50.888;4.746;2023-07-13T07:05:41;41.53;;;39.03;;
21569;SDS011;57598;50.888;4.746;2023-07-13T07:08:09;41.05;;;38.30;;
21569;SDS011;57598;50.888;4.746;2023-07-13T07:10:37;40.63;;;38.13;;
21569;SDS011;57598;50.888;4.746;2023-07-13T07:13:04;38.80;;;36.47;;
21569;SDS011;57598;50.888;4.746;2023-07-13T07:15:31;38.55;;;36.25;;
21569;SDS011;57598;50.888;4.746;2023-07-13T07:17:58;38.80;;;36.20;;
21569;SDS011;57598;50.888;4.746;2023-07-13T07:20:25;40.47;;;37.67;;
21569;SDS011;57598;50.888;4.746;2023-07-13T07:22:54;39.08;;;35.67;;
21569;SDS011;57598;50.888;4.746;2023-07-13T07:25:21;36.92;;;34.17;;
21569;SDS011;57598;50.888;4.746;2023-07-13T07:27:48;37.30;;;34.97;;
21569;SDS011;57598;50.888;4.746;2023-07-13T07:30:16;38.42;;;35.75;;
21569;SDS011;57598;50.888;4.746;2023-07-13T07:32:43;36.45;;;33.85;;
21569;SDS011;57598;50.888;4.746;2023-07-13T07:35:11;39.08;;;36.00;;
21569;SDS011;57598;50.888;4.746;2023-07-13T07:37:38;35.45;;;33.45;;
21569;SDS011;57598;50.888;4.746;2023-07-13T07:40:07;36.00;;;33.47;;
21569;SDS011;57598;50.888;4.746;2023-07-13T07:42:34;39.63;;;36.38;;
21569;SDS011;57598;50.888;4.746;2023-07-13T07:45:02;34.10;;;32.20;;
21569;SDS011;57598;50.888;4.746;2023-07-13T07:47:29;33.10;;;31.10;;
21569;SDS011;57598;50.888;4.746;2023-07-13T07:49:57;31.52;;;29.83;;
21569;SDS011;57598;50.888;4.746;2023-07-13T07:52:24;32.05;;;29.88;;
21569;SDS011;57598;50.888;4.746;2023-07-13T07:54:51;30.00;;;28.40;;
21569;SDS011;57598;50.888;4.746;2023-07-13T07:57:20;32.15;;;30.20;;
21569;SDS011;57598;50.888;4.746;2023-07-13T07:59:47;30.90;;;29.08;;
21569;SDS011;57598;50.888;4.746;2023-07-13T08:02:14;30.45;;;28.80;;
21569;SDS011;57598;50.888;4.746;2023-07-13T08:04:41;30.58;;;28.58;;
21569;SDS011;57598;50.888;4.746;2023-07-13T08:07:09;32.10;;;30.15;;
21569;SDS011;57598;50.888;4.746;2023-07-13T08:09:36;32.65;;;30.80;;
21569;SDS011;57598;50.888;4.746;2023-07-13T08:12:04;32.05;;;29.83;;
21569;SDS011;57598;50.888;4.746;2023-07-13T08:14:32;30.02;;;28.42;;
21569;SDS011;57598;50.888;4.746;2023-07-13T08:17:00;29.48;;;27.77;;
21569;SDS011;57598;50.888;4.746;2023-07-13T08:19:27;28.27;;;26.58;;
21569;SDS011;57598;50.888;4.746;2023-07-13T08:21:54;27.38;;;25.80;;
21569;SDS011;57598;50.888;4.746;2023-07-13T08:24:22;25.30;;;23.83;;
21569;SDS011;57598;50.888;4.746;2023-07-13T08:26:50;23.27;;;21.98;;
21569;SDS011;57598;50.888;4.746;2023-07-13T08:29:17;24.50;;;23.00;;
21569;SDS011;57598;50.888;4.746;2023-07-13T08:31:46;25.17;;;23.67;;
21569;SDS011;57598;50.888;4.746;2023-07-13T08:34:13;24.25;;;22.65;;
21569;SDS011;57598;50.888;4.746;2023-07-13T08:36:41;21.67;;;20.38;;
21569;SDS011;57598;50.888;4.746;2023-07-13T08:39:08;20.38;;;19.02;;
21569;SDS011;57598;50.888;4.746;2023-07-13T08:41:35;22.35;;;20.48;;
21569;SDS011;57598;50.888;4.746;2023-07-13T08:44:03;21.73;;;20.20;;
21569;SDS011;57598;50.888;4.746;2023-07-13T08:46:35;20.05;;;18.42;;
21569;SDS011;57598;50.888;4.746;2023-07-13T08:49:05;16.85;;;15.85;;
21569;SDS011;57598;50.888;4.746;2023-07-13T08:51:39;19.67;;;18.20;;
21569;SDS011;57598;50.888;4.746;2023-07-13T08:54:11;17.50;;;16.15;;
21569;SDS011;57598;50.888;4.746;2023-07-13T08:56:39;15.93;;;14.88;;
21569;SDS011;57598;50.888;4.746;2023-07-13T08:59:09;15.65;;;14.73;;
21569;SDS011;57598;50.888;4.746;2023-07-13T09:04:08;16.08;;;14.75;;
21569;SDS011;57598;50.888;4.746;2023-07-13T09:06:39;16.10;;;15.05;;
21569;SDS011;57598;50.888;4.746;2023-07-13T09:09:10;14.48;;;13.55;;
21569;SDS011;57598;50.888;4.746;2023-07-13T09:11:45;15.05;;;14.07;;
21569;SDS011;57598;50.888;4.746;2023-07-13T09:16:40;15.57;;;14.57;;
21569;SDS011;57598;50.888;4.746;2023-07-13T09:19:11;16.05;;;14.95;;
21569;SDS011;57598;50.888;4.746;2023-07-13T09:21:41;15.52;;;14.63;;
21569;SDS011;57598;50.888;4.746;2023-07-13T09:24:24;15.77;;;14.43;;
21569;SDS011;57598;50.888;4.746;2023-07-13T09:26:54;13.93;;;12.93;;
21569;SDS011;57598;50.888;4.746;2023-07-13T09:29:24;14.45;;;13.38;;
21569;SDS011;57598;50.888;4.746;2023-07-13T09:31:54;13.73;;;12.82;;
21569;SDS011;57598;50.888;4.746;2023-07-13T09:34:25;15.90;;;14.25;;
21569;SDS011;57598;50.888;4.746;2023-07-13T09:36:52;14.55;;;13.35;;
21569;SDS011;57598;50.888;4.746;2023-07-13T09:39:21;14.00;;;13.00;;
21569;SDS011;57598;50.888;4.746;2023-07-13T09:41:53;14.30;;;13.40;;
21569;SDS011;57598;50.888;4.746;2023-07-13T09:44:27;15.02;;;14.02;;
21569;SDS011;57598;50.888;4.746;2023-07-13T09:46:56;13.80;;;12.98;;
21569;SDS011;57598;50.888;4.746;2023-07-13T09:49:25;15.10;;;14.00;;
21569;SDS011;57598;50.888;4.746;2023-07-13T09:51:57;15.48;;;13.95;;
21569;SDS011;57598;50.888;4.746;2023-07-13T09:54:25;14.85;;;13.63;;
21569;SDS011;57598;50.888;4.746;2023-07-13T09:56:56;14.48;;;13.57;;
21569;SDS011;57598;50.888;4.746;2023-07-13T09:59:24;14.90;;;13.80;;
21569;SDS011;57598;50.888;4.746;2023-07-13T10:01:51;17.73;;;15.82;;
21569;SDS011;57598;50.888;4.746;2023-07-13T10:04:19;16.83;;;15.38;;
21569;SDS011;57598;50.888;4.746;2023-07-13T10:06:48;14.35;;;13.35;;
21569;SDS011;57598;50.888;4.746;2023-07-13T10:09:17;13.57;;;12.77;;
21569;SDS011;57598;50.888;4.746;2023-07-13T10:11:44;15.20;;;13.77;;
21569;SDS011;57598;50.888;4.746;2023-07-13T10:14:13;15.75;;;14.65;;
21569;SDS011;57598;50.888;4.746;2023-07-13T10:16:41;14.27;;;13.35;;
21569;SDS011;57598;50.888;4.746;2023-07-13T10:19:11;13.05;;;12.25;;
21569;SDS011;57598;50.888;4.746;2023-07-13T10:21:43;14.02;;;12.82;;
21569;SDS011;57598;50.888;4.746;2023-07-13T10:24:15;13.30;;;12.40;;
21569;SDS011;57598;50.888;4.746;2023-07-13T10:26:45;14.95;;;14.05;;
21569;SDS011;57598;50.888;4.746;2023-07-13T10:29:14;15.38;;;14.05;;
21569;SDS011;57598;50.888;4.746;2023-07-13T10:31:44;23.50;;;13.88;;
21569;SDS011;57598;50.888;4.746;2023-07-13T10:34:12;13.75;;;12.85;;
21569;SDS011;57598;50.888;4.746;2023-07-13T10:36:40;21.63;;;15.98;;
21569;SDS011;57598;50.888;4.746;2023-07-13T10:39:10;15.38;;;13.95;;
21569;SDS011;57598;50.888;4.746;2023-07-13T10:44:12;14.32;;;13.43;;
21569;SDS011;57598;50.888;4.746;2023-07-13T10:46:45;14.40;;;13.35;;
21569;SDS011;57598;50.888;4.746;2023-07-13T10:49:12;12.68;;;11.85;;
21569;SDS011;57598;50.888;4.746;2023-07-13T10:51:40;13.45;;;12.45;;
21569;SDS011;57598;50.888;4.746;2023-07-13T10:54:11;12.90;;;12.00;;
21569;SDS011;57598;50.888;4.746;2023-07-13T10:56:40;14.27;;;13.38;;
21569;SDS011;57598;50.888;4.746;2023-07-13T10:59:11;29.33;;;14.60;;
21569;SDS011;57598;50.888;4.746;2023-07-13T11:01:41;16.25;;;15.05;;
21569;SDS011;57598;50.888;4.746;2023-07-13T11:04:13;13.30;;;12.15;;
21569;SDS011;57598;50.888;4.746;2023-07-13T11:06:41;14.32;;;13.43;;
21569;SDS011;57598;50.888;4.746;2023-07-13T11:11:55;15.32;;;14.43;;
21569;SDS011;57598;50.888;4.746;2023-07-13T11:14:29;15.57;;;14.38;;
21569;SDS011;57598;50.888;4.746;2023-07-13T11:16:57;14.00;;;12.70;;
21569;SDS011;57598;50.888;4.746;2023-07-13T11:19:35;13.75;;;12.57;;
21569;SDS011;57598;50.888;4.746;2023-07-13T11:22:24;14.57;;;13.63;;
21569;SDS011;57598;50.888;4.746;2023-07-13T11:24:59;14.75;;;13.85;;
21569;SDS011;57598;50.888;4.746;2023-07-13T11:27:34;13.98;;;12.98;;
21569;SDS011;57598;50.888;4.746;2023-07-13T11:33:08;13.70;;;12.80;;
21569;SDS011;57598;50.888;4.746;2023-07-13T11:35:41;14.77;;;13.70;;
21569;SDS011;57598;50.888;4.746;2023-07-13T11:38:12;14.15;;;13.07;;
21569;SDS011;57598;50.888;4.746;2023-07-13T11:40:40;13.77;;;12.88;;
21569;SDS011;57598;50.888;4.746;2023-07-13T11:43:08;13.75;;;12.77;;
21569;SDS011;57598;50.888;4.746;2023-07-13T11:45:35;13.90;;;12.90;;
21569;SDS011;57598;50.888;4.746;2023-07-13T11:48:02;14.23;;;13.20;;
21569;SDS011;57598;50.888;4.746;2023-07-13T11:50:31;14.13;;;13.13;;
21569;SDS011;57598;50.888;4.746;2023-07-13T11:52:58;15.23;;;13.80;;
21569;SDS011;57598;50.888;4.746;2023-07-13T11:55:26;14.13;;;13.23;;
21569;SDS011;57598;50.888;4.746;2023-07-13T11:57:56;13.77;;;12.88;;
21569;SDS011;57598;50.888;4.746;2023-07-13T12:00:25;14.18;;;12.95;;
21569;SDS011;57598;50.888;4.746;2023-07-13T12:02:56;14.10;;;13.10;;
21569;SDS011;57598;50.888;4.746;2023-07-13T12:05:24;14.77;;;13.57;;
21569;SDS011;57598;50.888;4.746;2023-07-13T12:07:53;14.07;;;13.18;;
21569;SDS011;57598;50.888;4.746;2023-07-13T12:10:22;14.45;;;13.55;;
21569;SDS011;57598;50.888;4.746;2023-07-13T12:12:51;14.50;;;13.60;;
21569;SDS011;57598;50.888;4.746;2023-07-13T12:15:19;14.48;;;13.48;;
21569;SDS011;57598;50.888;4.746;2023-07-13T12:17:47;15.13;;;14.13;;
21569;SDS011;57598;50.888;4.746;2023-07-13T12:20:17;15.00;;;14.00;;
21569;SDS011;57598;50.888;4.746;2023-07-13T12:22:46;15.30;;;14.35;;
21569;SDS011;57598;50.888;4.746;2023-07-13T12:25:15;14.93;;;14.02;;
21569;SDS011;57598;50.888;4.746;2023-07-13T12:27:45;14.73;;;13.75;;
21569;SDS011;57598;50.888;4.746;2023-07-13T12:30:26;14.73;;;13.82;;
21569;SDS011;57598;50.888;4.746;2023-07-13T12:32:56;15.27;;;14.07;;
21569;SDS011;57598;50.888;4.746;2023-07-13T12:35:29;14.35;;;13.27;;
21569;SDS011;57598;50.888;4.746;2023-07-13T12:38:00;13.95;;;13.05;;
21569;SDS011;57598;50.888;4.746;2023-07-13T12:40:31;13.63;;;12.73;;
21569;SDS011;57598;50.888;4.746;2023-07-13T12:43:00;15.63;;;14.43;;
21569;SDS011;57598;50.888;4.746;2023-07-13T12:45:30;15.13;;;14.13;;
21569;SDS011;57598;50.888;4.746;2023-07-13T12:47:58;15.05;;;14.05;;
21569;SDS011;57598;50.888;4.746;2023-07-13T12:50:29;15.20;;;14.23;;
21569;SDS011;57598;50.888;4.746;2023-07-13T12:53:02;15.88;;;14.70;;
21569;SDS011;57598;50.888;4.746;2023-07-13T12:55:39;18.52;;;17.33;;
21569;SDS011;57598;50.888;4.746;2023-07-13T12:58:09;18.60;;;17.20;;
21569;SDS011;57598;50.888;4.746;2023-07-13T13:00:40;18.98;;;17.67;;
21569;SDS011;57598;50.888;4.746;2023-07-13T13:03:16;19.52;;;18.17;;
21569;SDS011;57598;50.888;4.746;2023-07-13T13:05:47;18.80;;;17.63;;
21569;SDS011;57598;50.888;4.746;2023-07-13T13:08:15;18.90;;;17.67;;
21569;SDS011;57598;50.888;4.746;2023-07-13T13:10:43;16.38;;;15.18;;
21569;SDS011;57598;50.888;4.746;2023-07-13T13:13:11;17.38;;;16.20;;
21569;SDS011;57598;50.888;4.746;2023-07-13T13:15:38;18.15;;;16.60;;
21569;SDS011;57598;50.888;4.746;2023-07-13T13:18:09;21.10;;;17.95;;
21569;SDS011;57598;50.888;4.746;2023-07-13T13:20:41;22.27;;;20.65;;
21569;SDS011;57598;50.888;4.746;2023-07-13T13:23:10;22.67;;;21.17;;
21569;SDS011;57598;50.888;4.746;2023-07-13T13:25:38;25.52;;;23.92;;
21569;SDS011;57598;50.888;4.746;2023-07-13T13:28:10;28.60;;;26.63;;
21569;SDS011;57598;50.888;4.746;2023-07-13T13:30:40;27.75;;;25.70;;
21569;SDS011;57598;50.888;4.746;2023-07-13T13:33:08;25.15;;;23.80;;
21569;SDS011;57598;50.888;4.746;2023-07-13T13:35:37;25.98;;;24.58;;
21569;SDS011;57598;50.888;4.746;2023-07-13T13:38:07;29.52;;;27.75;;
21569;SDS011;57598;50.888;4.746;2023-07-13T13:40:36;27.70;;;26.20;;
21569;SDS011;57598;50.888;4.746;2023-07-13T13:43:04;26.98;;;24.73;;
21569;SDS011;57598;50.888;4.746;2023-07-13T13:45:33;25.15;;;23.52;;
21569;SDS011;57598;50.888;4.746;2023-07-13T13:48:00;23.30;;;21.65;;
21569;SDS011;57598;50.888;4.746;2023-07-13T13:50:27;21.73;;;19.85;;
21569;SDS011;57598;50.888;4.746;2023-07-13T13:52:55;22.08;;;18.92;;
21569;SDS011;57598;50.888;4.746;2023-07-13T13:55:22;18.70;;;17.15;;
21569;SDS011;57598;50.888;4.746;2023-07-13T13:57:49;17.00;;;16.00;;
21569;SDS011;57598;50.888;4.746;2023-07-13T14:00:17;18.30;;;16.52;;
21569;SDS011;57598;50.888;4.746;2023-07-13T14:02:46;17.05;;;16.02;;
21569;SDS011;57598;50.888;4.746;2023-07-13T14:07:42;16.23;;;15.23;;
21569;SDS011;57598;50.888;4.746;2023-07-13T14:10:11;17.95;;;16.25;;
21569;SDS011;57598;50.888;4.746;2023-07-13T14:12:40;16.25;;;15.25;;
21569;SDS011;57598;50.888;4.746;2023-07-13T14:15:12;17.52;;;16.42;;
21569;SDS011;57598;50.888;4.746;2023-07-13T14:17:41;17.40;;;16.30;;
21569;SDS011;57598;50.888;4.746;2023-07-13T14:20:11;16.70;;;15.70;;
21569;SDS011;57598;50.888;4.746;2023-07-13T14:22:38;15.88;;;14.82;;
21569;SDS011;57598;50.888;4.746;2023-07-13T14:25:10;15.82;;;14.82;;
21569;SDS011;57598;50.888;4.746;2023-07-13T14:27:37;16.20;;;15.20;;
21569;SDS011;57598;50.888;4.746;2023-07-13T14:30:08;16.83;;;15.50;;
21569;SDS011;57598;50.888;4.746;2023-07-13T14:32:39;15.60;;;14.60;;
21569;SDS011;57598;50.888;4.746;2023-07-13T14:35:07;15.48;;;14.57;;
21569;SDS011;57598;50.888;4.746;2023-07-13T14:37:36;16.10;;;15.10;;
21569;SDS011;57598;50.888;4.746;2023-07-13T14:40:07;15.45;;;14.55;;
21569;SDS011;57598;50.888;4.746;2023-07-13T14:42:38;16.10;;;15.10;;
21569;SDS011;57598;50.888;4.746;2023-07-13T14:45:09;16.55;;;15.48;;
21569;SDS011;57598;50.888;4.746;2023-07-13T14:47:38;14.98;;;13.98;;